sensor_id;sensor_type;location;lat;lon;timestamp;P1;durP1;ratioP1;P2;durP2;ratioP2
50291;SDS011;36190;54.980;73.388;2023-03-14T00:00:08;9.65;;;3.92;;
50291;SDS011;36190;54.980;73.388;2023-03-14T00:02:38;11.43;;;4.78;;
50291;SDS011;36190;54.980;73.388;2023-03-14T00:05:06;11.75;;;4.00;;
50291;SDS011;36190;54.980;73.388;2023-03-14T00:07:35;10.00;;;4.07;;
50291;SDS011;36190;54.980;73.388;2023-03-14T00:10:04;9.98;;;4.22;;
50291;SDS011;36190;54.980;73.388;2023-03-14T00:12:33;13.13;;;4.00;;
50291;SDS011;36190;54.980;73.388;2023-03-14T00:15:00;9.35;;;4.15;;
50291;SDS011;36190;54.980;73.388;2023-03-14T00:17:30;11.38;;;3.97;;
50291;SDS011;36190;54.980;73.388;2023-03-14T00:19:57;12.73;;;5.00;;
50291;SDS011;36190;54.980;73.388;2023-03-14T00:22:29;9.23;;;3.83;;
50291;SDS011;36190;54.980;73.388;2023-03-14T00:24:57;11.85;;;4.22;;
50291;SDS011;36190;54.980;73.388;2023-03-14T00:27:24;10.65;;;4.15;;
50291;SDS011;36190;54.980;73.388;2023-03-14T00:29:52;10.98;;;4.47;;
50291;SDS011;36190;54.980;73.388;2023-03-14T00:32:19;11.45;;;3.85;;
50291;SDS011;36190;54.980;73.388;2023-03-14T00:34:48;12.70;;;4.30;;
50291;SDS011;36190;54.980;73.388;2023-03-14T00:37:16;13.25;;;4.43;;
50291;SDS011;36190;54.980;73.388;2023-03-14T00:39:43;12.32;;;4.63;;
50291;SDS011;36190;54.980;73.388;2023-03-14T00:42:11;11.75;;;4.40;;
50291;SDS011;36190;54.980;73.388;2023-03-14T00:44:38;12.85;;;4.25;;
50291;SDS011;36190;54.980;73.388;2023-03-14T00:47:06;10.95;;;4.72;;
50291;SDS011;36190;54.980;73.388;2023-03-14T00:49:33;11.43;;;4.00;;
50291;SDS011;36190;54.980;73.388;2023-03-14T00:52:02;11.20;;;4.88;;
50291;SDS011;36190;54.980;73.388;2023-03-14T00:54:30;12.57;;;4.43;;
50291;SDS011;36190;54.980;73.388;2023-03-14T00:56:57;13.30;;;4.63;;
50291;SDS011;36190;54.980;73.388;2023-03-14T00:59:25;9.90;;;4.18;;
50291;SDS011;36190;54.980;73.388;2023-03-14T01:01:52;11.52;;;4.40;;
50291;SDS011;36190;54.980;73.388;2023-03-14T01:04:19;12.23;;;4.30;;
50291;SDS011;36190;54.980;73.388;2023-03-14T01:06:47;12.68;;;4.88;;
50291;SDS011;36190;54.980;73.388;2023-03-14T01:09:16;14.23;;;5.63;;
50291;SDS011;36190;54.980;73.388;2023-03-14T01:11:44;10.57;;;4.10;;
50291;SDS011;36190;54.980;73.388;2023-03-14T01:14:12;51.75;;;17.05;;
50291;SDS011;36190;54.980;73.388;2023-03-14T01:16:39;25.15;;;10.00;;
50291;SDS011;36190;54.980;73.388;2023-03-14T01:19:07;17.23;;;6.63;;
50291;SDS011;36190;54.980;73.388;2023-03-14T01:21:35;15.15;;;6.28;;
50291;SDS011;36190;54.980;73.388;2023-03-14T01:24:04;12.65;;;5.70;;
50291;SDS011;36190;54.980;73.388;2023-03-14T01:26:34;16.52;;;5.93;;
50291;SDS011;36190;54.980;73.388;2023-03-14T01:29:02;15.63;;;6.77;;
50291;SDS011;36190;54.980;73.388;2023-03-14T01:31:30;17.50;;;6.43;;
50291;SDS011;36190;54.980;73.388;2023-03-14T01:33:57;19.25;;;8.38;;
50291;SDS011;36190;54.980;73.388;2023-03-14T01:36:25;17.13;;;7.32;;
50291;SDS011;36190;54.980;73.388;2023-03-14T01:38:52;14.77;;;6.33;;
50291;SDS011;36190;54.980;73.388;2023-03-14T01:41:20;15.00;;;7.40;;
50291;SDS011;36190;54.980;73.388;2023-03-14T01:43:51;14.95;;;6.07;;
50291;SDS011;36190;54.980;73.388;2023-03-14T01:46:29;17.00;;;6.70;;
50291;SDS011;36190;54.980;73.388;2023-03-14T01:49:02;17.63;;;5.83;;
50291;SDS011;36190;54.980;73.388;2023-03-14T01:51:34;12.67;;;6.00;;
50291;SDS011;36190;54.980;73.388;2023-03-14T01:54:09;12.50;;;5.20;;
50291;SDS011;36190;54.980;73.388;2023-03-14T01:56:40;12.65;;;5.07;;
50291;SDS011;36190;54.980;73.388;2023-03-14T01:59:11;12.07;;;4.30;;
50291;SDS011;36190;54.980;73.388;2023-03-14T02:01:40;11.98;;;5.10;;
50291;SDS011;36190;54.980;73.388;2023-03-14T02:04:10;11.73;;;4.30;;
50291;SDS011;36190;54.980;73.388;2023-03-14T02:06:41;14.25;;;4.47;;
50291;SDS011;36190;54.980;73.388;2023-03-14T02:09:14;12.80;;;5.32;;
50291;SDS011;36190;54.980;73.388;2023-03-14T02:11:42;12.38;;;4.07;;
50291;SDS011;36190;54.980;73.388;2023-03-14T02:14:15;11.13;;;4.10;;
50291;SDS011;36190;54.980;73.388;2023-03-14T02:16:51;9.32;;;3.92;;
50291;SDS011;36190;54.980;73.388;2023-03-14T02:19:21;13.10;;;4.80;;
50291;SDS011;36190;54.980;73.388;2023-03-14T02:22:00;10.77;;;4.28;;
50291;SDS011;36190;54.980;73.388;2023-03-14T02:27:09;11.05;;;4.40;;
50291;SDS011;36190;54.980;73.388;2023-03-14T02:29:39;10.10;;;4.05;;
50291;SDS011;36190;54.980;73.388;2023-03-14T02:32:12;12.60;;;5.20;;
50291;SDS011;36190;54.980;73.388;2023-03-14T02:34:43;15.35;;;5.18;;
50291;SDS011;36190;54.980;73.388;2023-03-14T02:37:16;13.30;;;6.15;;
50291;SDS011;36190;54.980;73.388;2023-03-14T02:39:46;12.18;;;4.90;;
50291;SDS011;36190;54.980;73.388;2023-03-14T02:42:16;12.10;;;5.07;;
50291;SDS011;36190;54.980;73.388;2023-03-14T02:44:51;13.52;;;4.45;;
50291;SDS011;36190;54.980;73.388;2023-03-14T02:47:21;10.88;;;4.90;;
50291;SDS011;36190;54.980;73.388;2023-03-14T02:49:53;9.93;;;4.22;;
50291;SDS011;36190;54.980;73.388;2023-03-14T02:52:26;9.10;;;4.07;;
50291;SDS011;36190;54.980;73.388;2023-03-14T02:54:54;10.57;;;4.28;;
50291;SDS011;36190;54.980;73.388;2023-03-14T02:57:23;10.75;;;4.00;;
50291;SDS011;36190;54.980;73.388;2023-03-14T02:59:50;11.00;;;4.43;;
50291;SDS011;36190;54.980;73.388;2023-03-14T03:02:18;10.95;;;4.28;;
50291;SDS011;36190;54.980;73.388;2023-03-14T03:04:45;13.52;;;4.78;;
50291;SDS011;36190;54.980;73.388;2023-03-14T03:07:13;11.57;;;4.35;;
50291;SDS011;36190;54.980;73.388;2023-03-14T03:09:40;11.38;;;4.57;;
50291;SDS011;36190;54.980;73.388;2023-03-14T03:12:08;11.63;;;4.30;;
50291;SDS011;36190;54.980;73.388;2023-03-14T03:14:37;8.98;;;3.85;;
50291;SDS011;36190;54.980;73.388;2023-03-14T03:17:04;12.20;;;4.38;;
50291;SDS011;36190;54.980;73.388;2023-03-14T03:19:32;10.55;;;4.25;;
50291;SDS011;36190;54.980;73.388;2023-03-14T03:22:00;13.70;;;4.50;;
50291;SDS011;36190;54.980;73.388;2023-03-14T03:24:27;11.52;;;4.18;;
50291;SDS011;36190;54.980;73.388;2023-03-14T03:26:55;11.40;;;4.25;;
50291;SDS011;36190;54.980;73.388;2023-03-14T03:29:22;13.65;;;4.85;;
50291;SDS011;36190;54.980;73.388;2023-03-14T03:31:51;12.23;;;4.40;;
50291;SDS011;36190;54.980;73.388;2023-03-14T03:34:19;12.70;;;4.90;;
50291;SDS011;36190;54.980;73.388;2023-03-14T03:36:46;12.10;;;4.70;;
50291;SDS011;36190;54.980;73.388;2023-03-14T03:39:14;12.07;;;4.95;;
50291;SDS011;36190;54.980;73.388;2023-03-14T03:41:41;10.27;;;4.03;;
50291;SDS011;36190;54.980;73.388;2023-03-14T03:44:09;11.88;;;4.72;;
50291;SDS011;36190;54.980;73.388;2023-03-14T03:46:37;11.38;;;4.78;;
50291;SDS011;36190;54.980;73.388;2023-03-14T03:49:06;11.50;;;4.53;;
50291;SDS011;36190;54.980;73.388;2023-03-14T03:51:34;13.23;;;5.35;;
50291;SDS011;36190;54.980;73.388;2023-03-14T03:54:01;15.55;;;5.75;;
50291;SDS011;36190;54.980;73.388;2023-03-14T03:56:28;16.50;;;6.40;;
50291;SDS011;36190;54.980;73.388;2023-03-14T03:58:56;18.55;;;6.57;;
50291;SDS011;36190;54.980;73.388;2023-03-14T04:01:24;22.33;;;7.93;;
50291;SDS011;36190;54.980;73.388;2023-03-14T04:03:52;20.42;;;7.65;;
50291;SDS011;36190;54.980;73.388;2023-03-14T04:06:21;19.85;;;8.50;;
50291;SDS011;36190;54.980;73.388;2023-03-14T04:08:49;24.50;;;7.68;;
50291;SDS011;36190;54.980;73.388;2023-03-14T04:11:17;22.70;;;9.18;;
50291;SDS011;36190;54.980;73.388;2023-03-14T04:13:44;20.38;;;7.50;;
50291;SDS011;36190;54.980;73.388;2023-03-14T04:16:13;23.75;;;8.80;;
50291;SDS011;36190;54.980;73.388;2023-03-14T04:18:43;15.05;;;5.95;;
50291;SDS011;36190;54.980;73.388;2023-03-14T04:21:10;15.18;;;6.68;;
50291;SDS011;36190;54.980;73.388;2023-03-14T04:23:39;17.25;;;7.72;;
50291;SDS011;36190;54.980;73.388;2023-03-14T04:26:07;11.10;;;4.80;;
50291;SDS011;36190;54.980;73.388;2023-03-14T04:28:34;12.55;;;4.57;;
50291;SDS011;36190;54.980;73.388;2023-03-14T04:31:06;13.38;;;5.35;;
50291;SDS011;36190;54.980;73.388;2023-03-14T04:33:34;12.38;;;6.13;;
50291;SDS011;36190;54.980;73.388;2023-03-14T04:36:03;10.73;;;4.53;;
50291;SDS011;36190;54.980;73.388;2023-03-14T04:38:31;11.93;;;4.55;;
50291;SDS011;36190;54.980;73.388;2023-03-14T04:41:00;12.23;;;5.18;;
50291;SDS011;36190;54.980;73.388;2023-03-14T04:43:27;11.80;;;5.13;;
50291;SDS011;36190;54.980;73.388;2023-03-14T04:45:55;10.50;;;5.07;;
50291;SDS011;36190;54.980;73.388;2023-03-14T04:48:24;13.05;;;5.60;;
50291;SDS011;36190;54.980;73.388;2023-03-14T04:50:54;13.18;;;4.65;;
50291;SDS011;36190;54.980;73.388;2023-03-14T04:53:22;9.55;;;4.18;;
50291;SDS011;36190;54.980;73.388;2023-03-14T04:55:49;11.95;;;5.15;;
50291;SDS011;36190;54.980;73.388;2023-03-14T04:58:19;12.25;;;5.03;;
50291;SDS011;36190;54.980;73.388;2023-03-14T05:00:47;12.70;;;6.13;;
50291;SDS011;36190;54.980;73.388;2023-03-14T05:03:14;12.30;;;5.00;;
50291;SDS011;36190;54.980;73.388;2023-03-14T05:05:42;14.18;;;4.40;;
50291;SDS011;36190;54.980;73.388;2023-03-14T05:08:10;12.50;;;4.72;;
50291;SDS011;36190;54.980;73.388;2023-03-14T05:10:37;10.52;;;4.60;;
50291;SDS011;36190;54.980;73.388;2023-03-14T05:13:05;10.25;;;4.47;;
50291;SDS011;36190;54.980;73.388;2023-03-14T05:15:34;9.88;;;4.45;;
50291;SDS011;36190;54.980;73.388;2023-03-14T05:18:01;9.27;;;4.13;;
50291;SDS011;36190;54.980;73.388;2023-03-14T05:20:30;8.90;;;3.67;;
50291;SDS011;36190;54.980;73.388;2023-03-14T05:22:57;10.23;;;4.22;;
50291;SDS011;36190;54.980;73.388;2023-03-14T05:25:25;14.00;;;5.05;;
50291;SDS011;36190;54.980;73.388;2023-03-14T05:27:53;9.77;;;4.43;;
50291;SDS011;36190;54.980;73.388;2023-03-14T05:30:21;9.30;;;3.85;;
50291;SDS011;36190;54.980;73.388;2023-03-14T05:32:50;10.00;;;4.13;;
50291;SDS011;36190;54.980;73.388;2023-03-14T05:35:17;13.65;;;4.25;;
50291;SDS011;36190;54.980;73.388;2023-03-14T05:37:45;10.93;;;4.47;;
50291;SDS011;36190;54.980;73.388;2023-03-14T05:40:12;8.43;;;3.45;;
50291;SDS011;36190;54.980;73.388;2023-03-14T05:42:40;11.68;;;5.13;;
50291;SDS011;36190;54.980;73.388;2023-03-14T05:45:08;13.88;;;4.97;;
50291;SDS011;36190;54.980;73.388;2023-03-14T05:47:36;10.18;;;4.53;;
50291;SDS011;36190;54.980;73.388;2023-03-14T05:50:05;10.65;;;4.28;;
50291;SDS011;36190;54.980;73.388;2023-03-14T05:52:33;10.85;;;4.25;;
50291;SDS011;36190;54.980;73.388;2023-03-14T05:55:01;11.15;;;4.40;;
50291;SDS011;36190;54.980;73.388;2023-03-14T05:57:29;12.32;;;5.07;;
50291;SDS011;36190;54.980;73.388;2023-03-14T05:59:56;12.52;;;4.30;;
50291;SDS011;36190;54.980;73.388;2023-03-14T06:02:23;13.50;;;5.60;;
50291;SDS011;36190;54.980;73.388;2023-03-14T06:04:51;10.43;;;4.85;;
50291;SDS011;36190;54.980;73.388;2023-03-14T06:07:20;10.57;;;4.45;;
50291;SDS011;36190;54.980;73.388;2023-03-14T06:09:48;10.90;;;4.57;;
50291;SDS011;36190;54.980;73.388;2023-03-14T06:12:15;9.73;;;4.20;;
50291;SDS011;36190;54.980;73.388;2023-03-14T06:14:43;10.52;;;3.70;;
50291;SDS011;36190;54.980;73.388;2023-03-14T06:17:11;11.07;;;4.88;;
50291;SDS011;36190;54.980;73.388;2023-03-14T06:19:38;11.95;;;5.60;;
50291;SDS011;36190;54.980;73.388;2023-03-14T06:22:06;9.52;;;4.00;;
50291;SDS011;36190;54.980;73.388;2023-03-14T06:24:35;14.35;;;5.78;;
50291;SDS011;36190;54.980;73.388;2023-03-14T06:27:03;10.60;;;4.50;;
50291;SDS011;36190;54.980;73.388;2023-03-14T06:29:30;10.05;;;4.00;;
50291;SDS011;36190;54.980;73.388;2023-03-14T06:31:58;12.48;;;4.63;;
50291;SDS011;36190;54.980;73.388;2023-03-14T06:34:25;13.88;;;4.10;;
50291;SDS011;36190;54.980;73.388;2023-03-14T06:36:52;13.82;;;4.78;;
50291;SDS011;36190;54.980;73.388;2023-03-14T06:39:20;8.50;;;3.70;;
50291;SDS011;36190;54.980;73.388;2023-03-14T06:41:49;11.55;;;4.47;;
50291;SDS011;36190;54.980;73.388;2023-03-14T06:44:16;9.35;;;3.60;;
50291;SDS011;36190;54.980;73.388;2023-03-14T06:46:44;11.43;;;4.05;;
50291;SDS011;36190;54.980;73.388;2023-03-14T06:49:12;8.98;;;3.40;;
50291;SDS011;36190;54.980;73.388;2023-03-14T06:51:39;11.15;;;3.65;;
50291;SDS011;36190;54.980;73.388;2023-03-14T06:54:07;7.90;;;3.20;;
50291;SDS011;36190;54.980;73.388;2023-03-14T06:56:34;9.95;;;4.55;;
50291;SDS011;36190;54.980;73.388;2023-03-14T06:59:03;10.45;;;3.72;;
50291;SDS011;36190;54.980;73.388;2023-03-14T07:01:31;7.85;;;3.40;;
50291;SDS011;36190;54.980;73.388;2023-03-14T07:04:00;8.80;;;3.90;;
50291;SDS011;36190;54.980;73.388;2023-03-14T07:06:27;10.00;;;3.90;;
50291;SDS011;36190;54.980;73.388;2023-03-14T07:08:55;13.23;;;4.10;;
50291;SDS011;36190;54.980;73.388;2023-03-14T07:11:23;14.95;;;5.18;;
50291;SDS011;36190;54.980;73.388;2023-03-14T07:13:51;15.10;;;6.57;;
50291;SDS011;36190;54.980;73.388;2023-03-14T07:16:20;15.45;;;6.05;;
50291;SDS011;36190;54.980;73.388;2023-03-14T07:18:47;13.10;;;4.90;;
50291;SDS011;36190;54.980;73.388;2023-03-14T07:21:15;10.75;;;4.60;;
50291;SDS011;36190;54.980;73.388;2023-03-14T07:23:43;13.38;;;5.18;;
50291;SDS011;36190;54.980;73.388;2023-03-14T07:26:10;9.90;;;4.25;;
50291;SDS011;36190;54.980;73.388;2023-03-14T07:28:37;10.60;;;4.07;;
50291;SDS011;36190;54.980;73.388;2023-03-14T07:31:06;13.30;;;4.03;;
50291;SDS011;36190;54.980;73.388;2023-03-14T07:33:35;11.45;;;5.78;;
50291;SDS011;36190;54.980;73.388;2023-03-14T07:36:03;14.85;;;6.13;;
50291;SDS011;36190;54.980;73.388;2023-03-14T07:38:31;13.43;;;5.72;;
50291;SDS011;36190;54.980;73.388;2023-03-14T07:40:59;13.50;;;6.55;;
50291;SDS011;36190;54.980;73.388;2023-03-14T07:43:27;18.40;;;9.48;;
50291;SDS011;36190;54.980;73.388;2023-03-14T07:45:54;13.02;;;5.55;;
50291;SDS011;36190;54.980;73.388;2023-03-14T07:48:22;12.82;;;5.30;;
50291;SDS011;36190;54.980;73.388;2023-03-14T07:50:53;11.18;;;4.65;;
50291;SDS011;36190;54.980;73.388;2023-03-14T07:53:21;10.90;;;5.07;;
50291;SDS011;36190;54.980;73.388;2023-03-14T07:55:50;10.30;;;4.00;;
50291;SDS011;36190;54.980;73.388;2023-03-14T07:58:18;10.65;;;3.90;;
50291;SDS011;36190;54.980;73.388;2023-03-14T08:00:47;12.50;;;4.13;;
50291;SDS011;36190;54.980;73.388;2023-03-14T08:03:14;8.55;;;4.38;;
50291;SDS011;36190;54.980;73.388;2023-03-14T08:05:42;11.48;;;4.25;;
50291;SDS011;36190;54.980;73.388;2023-03-14T08:08:11;10.00;;;3.75;;
50291;SDS011;36190;54.980;73.388;2023-03-14T08:10:38;8.82;;;3.60;;
50291;SDS011;36190;54.980;73.388;2023-03-14T08:13:06;8.40;;;3.45;;
50291;SDS011;36190;54.980;73.388;2023-03-14T08:15:33;9.70;;;4.15;;
50291;SDS011;36190;54.980;73.388;2023-03-14T08:18:02;9.95;;;4.25;;
50291;SDS011;36190;54.980;73.388;2023-03-14T08:20:30;8.30;;;3.50;;
50291;SDS011;36190;54.980;73.388;2023-03-14T08:22:57;8.50;;;3.20;;
50291;SDS011;36190;54.980;73.388;2023-03-14T08:25:27;10.13;;;3.30;;
50291;SDS011;36190;54.980;73.388;2023-03-14T08:27:55;10.57;;;3.58;;
50291;SDS011;36190;54.980;73.388;2023-03-14T08:30:23;10.20;;;3.70;;
50291;SDS011;36190;54.980;73.388;2023-03-14T08:32:51;11.02;;;4.05;;
50291;SDS011;36190;54.980;73.388;2023-03-14T08:35:18;7.72;;;3.40;;
50291;SDS011;36190;54.980;73.388;2023-03-14T08:37:47;7.68;;;3.00;;
50291;SDS011;36190;54.980;73.388;2023-03-14T08:40:15;11.57;;;4.00;;
50291;SDS011;36190;54.980;73.388;2023-03-14T08:42:44;12.40;;;3.65;;
50291;SDS011;36190;54.980;73.388;2023-03-14T08:45:12;11.07;;;4.32;;
50291;SDS011;36190;54.980;73.388;2023-03-14T08:47:41;12.27;;;4.18;;
50291;SDS011;36190;54.980;73.388;2023-03-14T08:50:10;9.52;;;4.10;;
50291;SDS011;36190;54.980;73.388;2023-03-14T08:52:38;11.48;;;3.90;;
50291;SDS011;36190;54.980;73.388;2023-03-14T08:55:07;10.32;;;4.10;;
50291;SDS011;36190;54.980;73.388;2023-03-14T08:57:35;9.88;;;4.05;;
50291;SDS011;36190;54.980;73.388;2023-03-14T09:00:04;10.00;;;3.90;;
50291;SDS011;36190;54.980;73.388;2023-03-14T09:02:36;9.18;;;4.53;;
50291;SDS011;36190;54.980;73.388;2023-03-14T09:05:04;10.63;;;4.82;;
50291;SDS011;36190;54.980;73.388;2023-03-14T09:07:33;8.23;;;3.72;;
50291;SDS011;36190;54.980;73.388;2023-03-14T09:10:00;11.35;;;3.80;;
50291;SDS011;36190;54.980;73.388;2023-03-14T09:12:27;8.95;;;3.63;;
50291;SDS011;36190;54.980;73.388;2023-03-14T09:14:55;9.30;;;4.18;;
50291;SDS011;36190;54.980;73.388;2023-03-14T09:17:24;9.77;;;4.03;;
50291;SDS011;36190;54.980;73.388;2023-03-14T09:19:52;11.27;;;4.40;;
50291;SDS011;36190;54.980;73.388;2023-03-14T09:22:20;8.65;;;3.40;;
50291;SDS011;36190;54.980;73.388;2023-03-14T09:24:47;9.45;;;3.70;;
50291;SDS011;36190;54.980;73.388;2023-03-14T09:27:15;9.60;;;3.78;;
50291;SDS011;36190;54.980;73.388;2023-03-14T09:29:43;9.27;;;3.50;;
50291;SDS011;36190;54.980;73.388;2023-03-14T09:32:10;9.52;;;3.90;;
50291;SDS011;36190;54.980;73.388;2023-03-14T09:34:39;10.45;;;4.35;;
50291;SDS011;36190;54.980;73.388;2023-03-14T09:37:07;11.30;;;4.85;;
50291;SDS011;36190;54.980;73.388;2023-03-14T09:39:34;9.20;;;3.72;;
50291;SDS011;36190;54.980;73.388;2023-03-14T09:42:02;10.57;;;4.80;;
50291;SDS011;36190;54.980;73.388;2023-03-14T09:44:33;9.02;;;3.80;;
50291;SDS011;36190;54.980;73.388;2023-03-14T09:47:05;11.20;;;4.13;;
50291;SDS011;36190;54.980;73.388;2023-03-14T09:49:34;10.02;;;3.92;;
50291;SDS011;36190;54.980;73.388;2023-03-14T09:52:05;9.73;;;4.22;;
50291;SDS011;36190;54.980;73.388;2023-03-14T09:54:38;8.30;;;3.83;;
50291;SDS011;36190;54.980;73.388;2023-03-14T09:57:11;8.93;;;3.72;;
50291;SDS011;36190;54.980;73.388;2023-03-14T09:59:41;9.43;;;3.72;;
50291;SDS011;36190;54.980;73.388;2023-03-14T10:02:11;9.98;;;3.58;;
50291;SDS011;36190;54.980;73.388;2023-03-14T10:04:42;8.93;;;3.47;;
50291;SDS011;36190;54.980;73.388;2023-03-14T10:07:14;10.07;;;4.20;;
50291;SDS011;36190;54.980;73.388;2023-03-14T10:09:45;9.23;;;4.50;;
50291;SDS011;36190;54.980;73.388;2023-03-14T10:12:16;8.55;;;3.92;;
50291;SDS011;36190;54.980;73.388;2023-03-14T10:14:47;10.65;;;3.78;;
50291;SDS011;36190;54.980;73.388;2023-03-14T10:17:17;9.25;;;3.53;;
50291;SDS011;36190;54.980;73.388;2023-03-14T10:19:53;10.88;;;4.03;;
50291;SDS011;36190;54.980;73.388;2023-03-14T10:22:24;11.98;;;3.83;;
50291;SDS011;36190;54.980;73.388;2023-03-14T10:24:55;8.45;;;3.75;;
50291;SDS011;36190;54.980;73.388;2023-03-14T10:27:30;10.63;;;3.75;;
50291;SDS011;36190;54.980;73.388;2023-03-14T10:30:00;10.82;;;3.95;;
50291;SDS011;36190;54.980;73.388;2023-03-14T10:32:32;12.02;;;4.32;;
50291;SDS011;36190;54.980;73.388;2023-03-14T10:35:11;9.55;;;3.83;;
50291;SDS011;36190;54.980;73.388;2023-03-14T10:37:52;9.65;;;4.00;;
50291;SDS011;36190;54.980;73.388;2023-03-14T10:40:24;9.95;;;4.13;;
50291;SDS011;36190;54.980;73.388;2023-03-14T10:42:55;15.40;;;4.32;;
50291;SDS011;36190;54.980;73.388;2023-03-14T10:45:29;11.02;;;4.20;;
50291;SDS011;36190;54.980;73.388;2023-03-14T10:47:59;9.02;;;3.72;;
50291;SDS011;36190;54.980;73.388;2023-03-14T10:50:33;8.85;;;3.40;;
50291;SDS011;36190;54.980;73.388;2023-03-14T10:53:03;11.30;;;3.83;;
50291;SDS011;36190;54.980;73.388;2023-03-14T10:55:39;8.75;;;4.30;;
50291;SDS011;36190;54.980;73.388;2023-03-14T10:58:24;10.05;;;3.58;;
50291;SDS011;36190;54.980;73.388;2023-03-14T11:00:58;10.43;;;3.50;;
50291;SDS011;36190;54.980;73.388;2023-03-14T11:03:34;7.93;;;3.40;;
50291;SDS011;36190;54.980;73.388;2023-03-14T11:06:05;7.40;;;3.20;;
50291;SDS011;36190;54.980;73.388;2023-03-14T11:08:42;9.30;;;3.45;;
50291;SDS011;36190;54.980;73.388;2023-03-14T11:11:18;10.32;;;4.20;;
50291;SDS011;36190;54.980;73.388;2023-03-14T11:13:55;9.98;;;3.80;;
50291;SDS011;36190;54.980;73.388;2023-03-14T11:16:38;8.75;;;3.65;;
50291;SDS011;36190;54.980;73.388;2023-03-14T11:19:20;12.02;;;3.97;;
50291;SDS011;36190;54.980;73.388;2023-03-14T11:22:03;13.52;;;4.35;;
50291;SDS011;36190;54.980;73.388;2023-03-14T11:24:44;9.43;;;3.80;;
50291;SDS011;36190;54.980;73.388;2023-03-14T11:27:25;11.18;;;4.05;;
50291;SDS011;36190;54.980;73.388;2023-03-14T11:29:58;8.70;;;3.90;;
50291;SDS011;36190;54.980;73.388;2023-03-14T11:32:36;8.48;;;3.67;;
50291;SDS011;36190;54.980;73.388;2023-03-14T11:35:14;9.90;;;4.43;;
50291;SDS011;36190;54.980;73.388;2023-03-14T11:37:47;10.02;;;4.13;;
50291;SDS011;36190;54.980;73.388;2023-03-14T11:42:53;13.68;;;5.25;;
50291;SDS011;36190;54.980;73.388;2023-03-14T11:45:26;10.20;;;3.92;;
50291;SDS011;36190;54.980;73.388;2023-03-14T11:48:05;11.18;;;4.35;;
50291;SDS011;36190;54.980;73.388;2023-03-14T11:50:42;13.55;;;5.43;;
50291;SDS011;36190;54.980;73.388;2023-03-14T11:53:12;10.60;;;4.35;;
50291;SDS011;36190;54.980;73.388;2023-03-14T11:55:44;13.68;;;5.05;;
50291;SDS011;36190;54.980;73.388;2023-03-14T11:58:13;11.13;;;5.00;;
50291;SDS011;36190;54.980;73.388;2023-03-14T12:00:45;10.52;;;4.80;;
50291;SDS011;36190;54.980;73.388;2023-03-14T12:03:17;11.02;;;4.68;;
50291;SDS011;36190;54.980;73.388;2023-03-14T12:05:58;11.20;;;4.68;;
50291;SDS011;36190;54.980;73.388;2023-03-14T12:08:43;12.85;;;4.60;;
50291;SDS011;36190;54.980;73.388;2023-03-14T12:11:29;11.65;;;4.53;;
50291;SDS011;36190;54.980;73.388;2023-03-14T12:14:00;10.77;;;4.90;;
50291;SDS011;36190;54.980;73.388;2023-03-14T12:16:33;12.20;;;5.18;;
50291;SDS011;36190;54.980;73.388;2023-03-14T12:21:59;10.32;;;4.90;;
50291;SDS011;36190;54.980;73.388;2023-03-14T12:24:33;10.40;;;4.40;;
50291;SDS011;36190;54.980;73.388;2023-03-14T12:27:05;10.73;;;4.93;;
50291;SDS011;36190;54.980;73.388;2023-03-14T12:29:57;11.73;;;5.28;;
50291;SDS011;36190;54.980;73.388;2023-03-14T12:32:25;11.85;;;4.90;;
50291;SDS011;36190;54.980;73.388;2023-03-14T12:34:53;11.25;;;5.10;;
50291;SDS011;36190;54.980;73.388;2023-03-14T12:37:26;11.18;;;5.07;;
50291;SDS011;36190;54.980;73.388;2023-03-14T12:40:12;10.57;;;4.65;;
50291;SDS011;36190;54.980;73.388;2023-03-14T12:42:50;12.23;;;4.90;;
50291;SDS011;36190;54.980;73.388;2023-03-14T12:45:25;10.30;;;4.05;;
50291;SDS011;36190;54.980;73.388;2023-03-14T12:48:03;10.63;;;4.75;;
50291;SDS011;36190;54.980;73.388;2023-03-14T12:50:37;9.60;;;4.03;;
50291;SDS011;36190;54.980;73.388;2023-03-14T12:53:33;13.48;;;5.93;;
50291;SDS011;36190;54.980;73.388;2023-03-14T12:56:21;10.68;;;4.25;;
50291;SDS011;36190;54.980;73.388;2023-03-14T12:59:02;11.00;;;4.50;;
50291;SDS011;36190;54.980;73.388;2023-03-14T13:01:45;11.20;;;4.72;;
50291;SDS011;36190;54.980;73.388;2023-03-14T13:04:15;11.20;;;4.32;;
50291;SDS011;36190;54.980;73.388;2023-03-14T13:06:48;10.43;;;4.90;;
50291;SDS011;36190;54.980;73.388;2023-03-14T13:12:25;11.90;;;5.20;;
50291;SDS011;36190;54.980;73.388;2023-03-14T13:14:59;15.00;;;7.43;;
50291;SDS011;36190;54.980;73.388;2023-03-14T13:17:30;12.88;;;6.28;;
50291;SDS011;36190;54.980;73.388;2023-03-14T13:20:00;12.20;;;5.97;;
50291;SDS011;36190;54.980;73.388;2023-03-14T13:22:32;12.95;;;5.70;;
50291;SDS011;36190;54.980;73.388;2023-03-14T13:25:03;12.68;;;5.07;;
50291;SDS011;36190;54.980;73.388;2023-03-14T13:27:33;13.50;;;6.28;;
50291;SDS011;36190;54.980;73.388;2023-03-14T13:30:11;14.30;;;5.93;;
50291;SDS011;36190;54.980;73.388;2023-03-14T13:32:49;14.13;;;5.57;;
50291;SDS011;36190;54.980;73.388;2023-03-14T13:35:19;11.60;;;4.88;;
50291;SDS011;36190;54.980;73.388;2023-03-14T13:37:56;16.17;;;7.03;;
50291;SDS011;36190;54.980;73.388;2023-03-14T13:40:26;15.02;;;7.22;;
50291;SDS011;36190;54.980;73.388;2023-03-14T13:43:01;14.10;;;6.18;;
50291;SDS011;36190;54.980;73.388;2023-03-14T13:45:32;16.98;;;6.88;;
50291;SDS011;36190;54.980;73.388;2023-03-14T13:48:10;13.77;;;6.90;;
50291;SDS011;36190;54.980;73.388;2023-03-14T13:50:44;12.60;;;5.45;;
50291;SDS011;36190;54.980;73.388;2023-03-14T13:53:23;12.45;;;5.38;;
50291;SDS011;36190;54.980;73.388;2023-03-14T13:55:51;11.40;;;5.43;;
50291;SDS011;36190;54.980;73.388;2023-03-14T13:58:20;12.48;;;5.45;;
50291;SDS011;36190;54.980;73.388;2023-03-14T14:01:03;11.55;;;5.13;;
50291;SDS011;36190;54.980;73.388;2023-03-14T14:03:37;13.55;;;6.00;;
50291;SDS011;36190;54.980;73.388;2023-03-14T14:06:08;11.98;;;5.88;;
50291;SDS011;36190;54.980;73.388;2023-03-14T14:08:43;13.75;;;6.25;;
50291;SDS011;36190;54.980;73.388;2023-03-14T14:11:14;14.63;;;5.82;;
50291;SDS011;36190;54.980;73.388;2023-03-14T14:13:49;12.80;;;5.57;;
50291;SDS011;36190;54.980;73.388;2023-03-14T14:16:18;15.18;;;6.65;;
50291;SDS011;36190;54.980;73.388;2023-03-14T14:18:51;13.05;;;5.90;;
50291;SDS011;36190;54.980;73.388;2023-03-14T14:21:21;15.85;;;7.13;;
50291;SDS011;36190;54.980;73.388;2023-03-14T14:23:49;20.25;;;8.93;;
50291;SDS011;36190;54.980;73.388;2023-03-14T14:26:18;15.40;;;6.53;;
50291;SDS011;36190;54.980;73.388;2023-03-14T14:28:46;15.57;;;7.00;;
50291;SDS011;36190;54.980;73.388;2023-03-14T14:31:20;15.55;;;7.60;;
50291;SDS011;36190;54.980;73.388;2023-03-14T14:33:54;15.75;;;7.05;;
50291;SDS011;36190;54.980;73.388;2023-03-14T14:36:23;16.52;;;6.88;;
50291;SDS011;36190;54.980;73.388;2023-03-14T14:38:54;15.00;;;7.25;;
50291;SDS011;36190;54.980;73.388;2023-03-14T14:41:29;14.98;;;6.40;;
50291;SDS011;36190;54.980;73.388;2023-03-14T14:44:00;15.98;;;7.35;;
50291;SDS011;36190;54.980;73.388;2023-03-14T14:46:32;15.25;;;7.30;;
50291;SDS011;36190;54.980;73.388;2023-03-14T14:49:05;15.75;;;6.75;;
50291;SDS011;36190;54.980;73.388;2023-03-14T14:51:39;14.48;;;7.20;;